createdAt,value
2022-12-23T00:01:55.619Z,42.00
2022-12-23T00:06:58.587Z,42.00
2022-12-23T00:12:15.361Z,42.00
2022-12-23T00:17:23.269Z,42.00
2022-12-23T00:22:40.509Z,42.60
2022-12-23T00:28:01.193Z,42.10
2022-12-23T00:33:05.747Z,42.00
2022-12-23T00:38:08.555Z,42.10
2022-12-23T00:43:11.390Z,42.00
2022-12-23T00:48:33.530Z,42.10
2022-12-23T00:53:36.387Z,42.10
2022-12-23T00:58:39.186Z,42.10
2022-12-23T01:04:00.852Z,42.10
2022-12-23T01:09:03.765Z,42.10
2022-12-23T01:14:09.204Z,42.20
2022-12-23T01:19:13.720Z,42.10
2022-12-23T01:24:16.629Z,42.10
2022-12-23T01:29:19.433Z,42.10
2022-12-23T01:34:23.593Z,42.10
2022-12-23T01:39:26.451Z,42.10
2022-12-23T01:44:57.733Z,42.20
2022-12-23T01:50:08.011Z,42.20
2022-12-23T01:55:12.168Z,42.20
2022-12-23T02:00:33.834Z,42.30
2022-12-23T02:05:38.420Z,42.30
2022-12-23T02:10:57.841Z,42.40
2022-12-23T02:16:17.556Z,42.40
2022-12-23T02:21:52.606Z,42.40
2022-12-23T02:27:09.121Z,42.50
2022-12-23T02:32:19.135Z,42.50
2022-12-23T02:37:30.312Z,42.60
2022-12-23T02:42:36.772Z,42.60
2022-12-23T02:47:45.678Z,42.70
2022-12-23T02:52:50.417Z,42.80
2022-12-23T02:57:56.501Z,42.80
2022-12-23T03:03:00.832Z,43.00
2022-12-23T03:08:07.495Z,43.00
2022-12-23T03:13:18.332Z,43.00
2022-12-23T03:18:31.973Z,43.00
2022-12-23T03:23:40.591Z,43.10
2022-12-23T03:28:50.251Z,43.10
2022-12-23T03:33:59.114Z,43.20
2022-12-23T03:39:05.550Z,43.20
2022-12-23T03:44:14.298Z,43.20
2022-12-23T03:49:25.152Z,43.10
2022-12-23T03:54:32.413Z,43.30
2022-12-23T03:59:37.955Z,43.30
2022-12-23T04:04:55.597Z,43.30
2022-12-23T04:09:59.662Z,43.30
2022-12-23T04:15:04.884Z,43.40
2022-12-23T04:20:13.676Z,43.40
2022-12-23T04:25:17.785Z,43.40
2022-12-23T04:30:20.730Z,43.40
2022-12-23T04:35:24.903Z,43.40
2022-12-23T04:40:27.766Z,43.40
2022-12-23T04:45:30.561Z,43.40
2022-12-23T04:50:34.711Z,43.50
2022-12-23T04:55:37.615Z,43.50
2022-12-23T05:00:40.480Z,43.60
2022-12-23T05:05:45.729Z,43.60
2022-12-23T05:10:48.600Z,43.70
2022-12-23T05:15:53.035Z,43.90
2022-12-23T05:20:57.253Z,44.00
2022-12-23T05:26:00.042Z,43.80
2022-12-23T05:31:04.728Z,43.60
2022-12-23T05:36:10.220Z,43.50
2022-12-23T05:41:13.181Z,43.50
2022-12-23T05:46:18.821Z,43.50
2022-12-23T05:51:26.913Z,43.60
2022-12-23T05:56:29.819Z,43.70
2022-12-23T06:01:32.688Z,43.80
2022-12-23T06:06:36.987Z,43.90
2022-12-23T06:11:39.833Z,44.00
2022-12-23T06:16:42.838Z,43.90
2022-12-23T06:21:47.103Z,43.90
2022-12-23T06:26:56.557Z,43.60
2022-12-23T06:32:00.000Z,43.60
2022-12-23T06:37:04.208Z,43.50
2022-12-23T06:42:07.034Z,43.50
2022-12-23T06:47:09.876Z,43.70
2022-12-23T06:52:14.026Z,43.80
2022-12-23T06:57:16.909Z,44.40
2022-12-23T07:02:19.859Z,44.20
2022-12-23T07:07:24.425Z,44.20
2022-12-23T07:12:27.315Z,44.20
2022-12-23T07:17:30.180Z,44.10
2022-12-23T07:22:34.376Z,44.20
2022-12-23T07:27:37.201Z,44.00
2022-12-23T07:32:40.328Z,43.80
2022-12-23T07:37:44.725Z,43.80
2022-12-23T07:42:49.826Z,43.80
2022-12-23T07:47:54.435Z,43.70
2022-12-23T07:52:58.794Z,43.60
2022-12-23T07:58:01.669Z,43.60
2022-12-23T08:03:04.806Z,43.60
2022-12-23T08:08:09.105Z,44.10
2022-12-23T08:13:11.917Z,43.60
2022-12-23T08:18:14.767Z,43.60
2022-12-23T08:23:24.551Z,43.60
2022-12-23T08:28:27.964Z,43.60
2022-12-23T08:33:30.868Z,43.50
2022-12-23T08:38:35.935Z,43.50
2022-12-23T08:43:38.931Z,43.40
2022-12-23T08:48:48.648Z,43.50
2022-12-23T08:54:00.171Z,43.50
2022-12-23T08:59:04.782Z,43.60
2022-12-23T09:04:08.412Z,43.70
2022-12-23T09:09:14.349Z,43.80
2022-12-23T09:14:17.157Z,43.90
2022-12-23T09:19:20.435Z,44.00
2022-12-23T09:24:24.639Z,44.00
2022-12-23T09:29:27.463Z,44.00
2022-12-23T09:34:30.323Z,44.00
2022-12-23T09:39:34.489Z,44.10
2022-12-23T09:44:54.997Z,44.10
2022-12-23T09:50:02.297Z,44.10
2022-12-23T09:55:12.159Z,44.10
2022-12-23T10:00:17.240Z,44.10
2022-12-23T10:05:28.533Z,44.10
2022-12-23T10:10:37.491Z,44.10
2022-12-23T10:15:44.222Z,44.20
2022-12-23T10:20:54.184Z,44.10
2022-12-23T10:25:58.447Z,44.20
2022-12-23T10:31:38.092Z,44.20
2022-12-23T10:36:36.853Z,44.10
2022-12-23T10:41:49.286Z,44.10
2022-12-23T10:47:01.251Z,44.20
2022-12-23T10:52:10.740Z,44.20
2022-12-23T10:57:16.793Z,44.20
2022-12-23T11:02:46.028Z,44.10
2022-12-23T11:07:49.008Z,44.30
2022-12-23T11:12:54.951Z,44.10
2022-12-23T11:18:03.234Z,44.10
2022-12-23T11:23:07.998Z,44.10
2022-12-23T11:28:17.406Z,44.20
2022-12-23T11:33:25.794Z,44.30
2022-12-23T11:38:28.786Z,44.10
2022-12-23T11:43:33.484Z,44.00
2022-12-23T11:48:36.313Z,44.00
2022-12-23T11:53:44.669Z,44.00
2022-12-23T11:58:53.479Z,44.00
2022-12-23T12:03:59.535Z,44.00
2022-12-23T12:09:05.415Z,44.00
2022-12-23T12:14:09.766Z,44.40
2022-12-23T12:19:18.432Z,44.10
2022-12-23T12:24:26.364Z,44.30
2022-12-23T12:29:37.607Z,44.30
2022-12-23T12:34:50.573Z,44.40
2022-12-23T12:39:55.832Z,44.60
2022-12-23T12:45:14.370Z,44.50
2022-12-23T12:50:21.333Z,44.50
2022-12-23T12:55:28.913Z,44.50
2022-12-23T13:00:42.714Z,44.40
2022-12-23T13:06:00.750Z,44.40
2022-12-23T13:11:10.622Z,45.00
2022-12-23T13:16:27.782Z,44.40
2022-12-23T13:21:38.369Z,44.50
2022-12-23T13:26:46.995Z,44.50
2022-12-23T13:31:55.899Z,44.60
2022-12-23T13:37:04.149Z,44.60
2022-12-23T13:42:12.905Z,44.70
2022-12-23T13:47:24.790Z,44.80
2022-12-23T13:52:43.754Z,44.90
2022-12-23T13:57:55.329Z,44.90
2022-12-23T14:03:23.313Z,44.80
2022-12-23T14:08:40.129Z,44.90
2022-12-23T14:13:52.394Z,44.80
2022-12-23T14:19:23.448Z,44.70
2022-12-23T14:25:11.796Z,44.80
2022-12-23T14:30:17.356Z,44.80
2022-12-23T14:35:28.422Z,44.80
2022-12-23T14:40:55.835Z,44.90
2022-12-23T14:46:02.200Z,45.00
2022-12-23T14:51:24.380Z,45.00
2022-12-23T14:56:36.897Z,45.00
2022-12-23T15:01:42.264Z,45.00
2022-12-23T15:06:50.154Z,44.90
2022-12-23T15:11:54.620Z,44.70
2022-12-23T15:16:57.596Z,44.60
2022-12-23T15:22:20.603Z,44.70
2022-12-23T15:27:28.879Z,44.70
2022-12-23T15:32:32.596Z,44.70
2022-12-23T15:37:36.771Z,44.70
2022-12-23T15:42:40.493Z,44.90
2022-12-23T15:47:43.514Z,44.90
2022-12-23T15:52:50.137Z,44.80
2022-12-23T15:57:53.586Z,44.90
2022-12-23T16:03:01.632Z,44.90
2022-12-23T16:08:29.118Z,44.70
2022-12-23T16:13:34.485Z,44.70
2022-12-23T16:18:47.151Z,44.60
2022-12-23T16:23:53.836Z,44.70
2022-12-23T16:29:01.195Z,44.70
2022-12-23T16:34:07.630Z,44.70
2022-12-23T16:39:21.662Z,44.70
2022-12-23T16:44:24.563Z,44.80
2022-12-23T16:49:35.804Z,44.80
2022-12-23T16:54:39.966Z,45.30
2022-12-23T16:59:42.849Z,45.00
2022-12-23T17:04:45.722Z,44.50
2022-12-23T17:09:49.949Z,44.30
2022-12-23T17:14:52.745Z,44.00
2022-12-23T17:19:56.264Z,44.00
2022-12-23T17:25:00.497Z,43.70
2022-12-23T17:30:03.452Z,43.60
2022-12-23T17:35:06.757Z,43.50
2022-12-23T17:40:13.252Z,43.20
2022-12-23T17:45:25.397Z,43.00
2022-12-23T17:50:28.674Z,42.80
2022-12-23T17:55:33.166Z,43.20
2022-12-23T18:00:37.090Z,42.60
2022-12-23T18:05:40.372Z,42.60
2022-12-23T18:10:45.527Z,42.40
2022-12-23T18:15:48.726Z,42.50
2022-12-23T18:20:53.123Z,43.10
2022-12-23T18:25:58.214Z,42.40
2022-12-23T18:31:01.280Z,42.20
2022-12-23T18:36:04.533Z,42.30
2022-12-23T18:41:10.803Z,42.20
2022-12-23T18:46:14.160Z,42.20
2022-12-23T18:51:18.684Z,42.20
2022-12-23T18:56:24.019Z,42.10
2022-12-23T19:01:26.971Z,42.10
2022-12-23T19:06:29.815Z,42.20
2022-12-23T19:11:34.443Z,42.30
2022-12-23T19:16:37.437Z,42.10
2022-12-23T19:21:40.461Z,42.20
2022-12-23T19:26:44.833Z,42.50
2022-12-23T19:31:47.678Z,42.60
2022-12-23T19:36:50.654Z,42.50
2022-12-23T19:41:54.945Z,42.40
2022-12-23T19:46:57.728Z,42.50
2022-12-23T19:52:00.611Z,42.40
2022-12-23T19:57:04.881Z,42.40
2022-12-23T20:02:07.699Z,42.60
2022-12-23T20:07:11.086Z,42.80
2022-12-23T20:12:15.275Z,42.90
2022-12-23T20:17:18.104Z,43.10
2022-12-23T20:22:20.917Z,43.20
2022-12-23T20:27:28.022Z,43.40
2022-12-23T20:32:31.213Z,43.30
2022-12-23T20:37:34.015Z,43.20
2022-12-23T20:42:38.394Z,43.20
2022-12-23T20:47:41.437Z,43.00
2022-12-23T20:52:44.241Z,43.00
2022-12-23T20:57:48.436Z,43.10
2022-12-23T21:02:51.371Z,42.80
2022-12-23T21:07:54.305Z,42.70
2022-12-23T21:12:58.489Z,42.40
2022-12-23T21:18:01.361Z,42.90
2022-12-23T21:23:04.234Z,42.80
2022-12-23T21:28:08.384Z,42.50
2022-12-23T21:33:11.201Z,42.40
2022-12-23T21:38:14.017Z,42.40
2022-12-23T21:43:18.291Z,42.30
2022-12-23T21:48:21.139Z,42.50
2022-12-23T21:53:23.953Z,42.50
2022-12-23T21:58:28.240Z,42.50
2022-12-23T22:03:31.108Z,42.60
2022-12-23T22:08:34.444Z,43.20
2022-12-23T22:13:38.978Z,42.70
2022-12-23T22:18:43.006Z,42.40
2022-12-23T22:23:46.362Z,42.40
2022-12-23T22:28:50.732Z,42.60
2022-12-23T22:33:53.581Z,42.80
2022-12-23T22:38:58.690Z,42.50
2022-12-23T22:44:02.897Z,42.50
2022-12-23T22:49:05.982Z,42.50
2022-12-23T22:54:09.118Z,42.60
2022-12-23T22:59:21.274Z,42.30
2022-12-23T23:04:24.330Z,42.40
2022-12-23T23:09:27.199Z,42.90
2022-12-23T23:14:51.721Z,42.70
2022-12-23T23:19:55.161Z,42.30
2022-12-23T23:24:58.026Z,42.60
2022-12-23T23:30:02.241Z,42.60
2022-12-23T23:35:10.719Z,42.90
2022-12-23T23:40:14.226Z,42.90
2022-12-23T23:45:18.392Z,43.10
2022-12-23T23:50:21.482Z,43.10
2022-12-23T23:55:24.293Z,43.20
